createdAt,value
2023-08-11T00:00:00.958Z,7.3
2023-08-11T00:01:17.253Z,10.7
2023-08-11T00:02:33.594Z,9
2023-08-11T00:03:49.831Z,9.9
2023-08-11T00:05:06.173Z,23.1
2023-08-11T00:06:22.420Z,7.9
2023-08-11T00:07:38.711Z,10.3
2023-08-11T00:08:55.013Z,9.6
2023-08-11T00:10:11.349Z,7.7
2023-08-11T00:11:27.635Z,7.8
2023-08-11T00:12:43.887Z,9.6
2023-08-11T00:14:00.219Z,10
2023-08-11T00:15:15.520Z,7.6
2023-08-11T00:16:31.813Z,7.3
2023-08-11T00:17:48.106Z,9.1
2023-08-11T00:19:04.371Z,10
2023-08-11T00:20:20.658Z,12.3
2023-08-11T00:21:36.987Z,8.5
2023-08-11T00:22:53.245Z,8.5
2023-08-11T00:24:09.571Z,8.9
2023-08-11T00:25:25.825Z,11.3
2023-08-11T00:26:42.116Z,9.8
2023-08-11T00:27:58.462Z,9.4
2023-08-11T00:29:14.740Z,9
2023-08-11T00:30:31.000Z,7.1
2023-08-11T00:31:46.346Z,7.2
2023-08-11T00:33:02.605Z,9.9
2023-08-11T00:34:18.942Z,8.4
2023-08-11T00:35:35.196Z,8.5
2023-08-11T00:36:51.514Z,10.2
2023-08-11T00:38:07.776Z,11.4
2023-08-11T00:39:24.110Z,7.1
2023-08-11T00:40:40.351Z,7.2
2023-08-11T00:41:56.647Z,12.2
2023-08-11T00:43:12.948Z,8.6
2023-08-11T00:44:29.240Z,8.1
2023-08-11T00:45:45.539Z,8
2023-08-11T00:47:01.862Z,6.6
2023-08-11T00:48:17.137Z,7.7
2023-08-11T00:49:33.431Z,8.4
2023-08-11T00:50:49.714Z,9.5
2023-08-11T00:52:06.011Z,7.7
2023-08-11T00:53:22.341Z,9.6
2023-08-11T00:54:38.638Z,7.3
2023-08-11T00:55:54.893Z,7.6
2023-08-11T00:57:11.230Z,8.1
2023-08-11T00:58:27.488Z,8.4
2023-08-11T00:59:43.772Z,9.8
2023-08-11T01:01:00.100Z,7.7
2023-08-11T01:02:16.345Z,8.4
2023-08-11T01:03:32.647Z,9
2023-08-11T01:04:49.104Z,9.6
2023-08-11T01:06:05.351Z,9.3
2023-08-11T01:07:21.682Z,13.2
2023-08-11T01:08:37.942Z,6.4
2023-08-11T01:09:54.270Z,12.4
2023-08-11T01:11:10.572Z,8
2023-08-11T01:12:26.818Z,10.4
2023-08-11T01:13:43.116Z,7.7
2023-08-11T01:14:59.408Z,8.7
2023-08-11T01:16:15.691Z,9.8
2023-08-11T01:17:31.980Z,10.9
2023-08-11T01:18:48.275Z,9.3
2023-08-11T01:20:04.567Z,13.5
2023-08-11T01:21:19.928Z,8.2
2023-08-11T01:22:36.224Z,8.8
2023-08-11T01:23:52.464Z,11.5
2023-08-11T01:25:08.759Z,9.9
2023-08-11T01:26:25.050Z,9.6
2023-08-11T01:27:41.382Z,10.4
2023-08-11T01:28:57.646Z,9.3
2023-08-11T01:30:13.932Z,9.7
2023-08-11T01:31:30.226Z,8.4
2023-08-11T01:32:46.510Z,7
2023-08-11T01:34:02.862Z,9.8
2023-08-11T01:35:19.105Z,8.2
2023-08-11T01:36:35.394Z,10.7
2023-08-11T01:37:51.846Z,12.5
2023-08-11T01:39:08.103Z,10.7
2023-08-11T01:40:24.437Z,8.1
2023-08-11T01:41:40.692Z,11.3
2023-08-11T01:42:56.974Z,9.8
2023-08-11T01:44:13.274Z,12.9
2023-08-11T01:45:29.563Z,10
2023-08-11T01:46:45.860Z,9.4
2023-08-11T01:48:02.154Z,10.1
2023-08-11T01:49:18.448Z,9.3
2023-08-11T01:50:34.730Z,8.4
2023-08-11T01:51:51.043Z,9.3
2023-08-11T01:53:07.321Z,8.3
2023-08-11T01:54:22.626Z,9.6
2023-08-11T01:55:38.925Z,11.1
2023-08-11T01:56:55.223Z,8.8
2023-08-11T01:58:11.549Z,9
2023-08-11T01:59:27.846Z,9.1
2023-08-11T02:00:44.105Z,9.9
2023-08-11T02:02:00.000Z,9.6
2023-08-11T02:03:16.686Z,9.8
2023-08-11T02:04:32.970Z,9.4
2023-08-11T02:05:49.275Z,12.7
2023-08-11T02:07:05.559Z,9.8
2023-08-11T02:08:21.850Z,12.9
2023-08-11T02:09:38.156Z,9.3
2023-08-11T02:10:54.604Z,8.3
2023-08-11T02:12:10.895Z,8.2
2023-08-11T02:13:27.148Z,11.3
2023-08-11T02:14:43.439Z,9.7
2023-08-11T02:15:59.743Z,8.6
2023-08-11T02:17:16.081Z,11.9
2023-08-11T02:18:32.323Z,9
2023-08-11T02:19:48.656Z,10.5
2023-08-11T02:21:04.951Z,10.1
2023-08-11T02:22:21.207Z,7.9
2023-08-11T02:23:37.534Z,7.8
2023-08-11T02:24:53.783Z,7.3
2023-08-11T02:26:10.086Z,9.8
2023-08-11T02:27:25.431Z,7.1
2023-08-11T02:28:41.678Z,9.4
2023-08-11T02:29:58.026Z,7.7
2023-08-11T02:31:14.276Z,8.2
2023-08-11T02:32:30.559Z,8.5
2023-08-11T02:33:46.864Z,8.7
2023-08-11T02:35:03.189Z,9.9
2023-08-11T02:36:19.447Z,6.8
2023-08-11T02:37:35.745Z,9.6
2023-08-11T02:38:52.027Z,6.7
2023-08-11T02:40:08.335Z,9.8
2023-08-11T02:41:24.612Z,8.2
2023-08-11T02:42:40.906Z,7.5
2023-08-11T02:43:56.226Z,7.9
2023-08-11T02:45:12.561Z,8.2
2023-08-11T02:46:28.845Z,7.4
2023-08-11T02:47:45.101Z,8.7
2023-08-11T02:49:01.442Z,6.4
2023-08-11T02:50:17.691Z,9.1
2023-08-11T02:51:33.984Z,7.2
2023-08-11T02:52:50.315Z,7.1
2023-08-11T02:54:06.571Z,10
2023-08-11T02:55:22.000Z,10.9
2023-08-11T02:56:39.217Z,8.2
2023-08-11T02:57:55.503Z,9.5
2023-08-11T02:59:11.738Z,10.1
2023-08-11T03:00:27.047Z,9.2
2023-08-11T03:01:43.342Z,6.9
2023-08-11T03:02:59.628Z,10.1
2023-08-11T03:04:15.920Z,8.4
2023-08-11T03:05:32.225Z,8.2
2023-08-11T03:06:48.556Z,7.8
2023-08-11T03:08:04.807Z,8.2
2023-08-11T03:09:21.148Z,8.9
2023-08-11T03:10:37.438Z,6.5
2023-08-11T03:11:53.735Z,7.7
2023-08-11T03:13:09.974Z,8.5
2023-08-11T03:14:26.274Z,7.8
2023-08-11T03:15:42.564Z,8.3
2023-08-11T03:16:58.926Z,8.5
2023-08-11T03:18:15.221Z,9.1
2023-08-11T03:19:31.553Z,7.3
2023-08-11T03:20:47.757Z,12.4
2023-08-11T03:22:04.007Z,10.8
2023-08-11T03:23:20.296Z,7.5
2023-08-11T03:24:36.592Z,7.5
2023-08-11T03:25:52.880Z,6.9
2023-08-11T03:27:09.176Z,10.3
2023-08-11T03:28:25.430Z,9
2023-08-11T03:29:41.674Z,7.8
2023-08-11T03:30:57.964Z,10.5
2023-08-11T03:32:14.154Z,12
2023-08-11T03:33:29.463Z,8.1
2023-08-11T03:34:45.655Z,9.4
2023-08-11T03:36:01.939Z,9.6
2023-08-11T03:37:18.183Z,9.4
2023-08-11T03:38:34.378Z,10.4
2023-08-11T03:39:50.666Z,9.9
2023-08-11T03:41:06.905Z,9
2023-08-11T03:42:23.095Z,9.9
2023-08-11T03:43:39.329Z,10.8
2023-08-11T03:44:55.618Z,12.4
2023-08-11T03:46:11.855Z,10.3
2023-08-11T03:47:28.054Z,12.2
2023-08-11T03:48:44.332Z,9.4
2023-08-11T03:49:59.542Z,10.6
2023-08-11T03:51:15.795Z,9.4
2023-08-11T03:52:32.031Z,14.7
2023-08-11T03:53:48.255Z,9.5
2023-08-11T03:55:04.498Z,9.8
2023-08-11T03:56:20.739Z,11.2
2023-08-11T03:57:36.002Z,9.1
2023-08-11T03:58:52.244Z,13.1
2023-08-11T04:00:08.524Z,10
2023-08-11T04:01:24.731Z,11
2023-08-11T04:02:41.000Z,9.9
2023-08-11T04:03:57.253Z,12.4
2023-08-11T04:05:13.431Z,11.6
2023-08-11T04:06:29.678Z,10.5
2023-08-11T04:07:45.911Z,11.3
2023-08-11T04:09:02.161Z,10.2
2023-08-11T04:10:18.444Z,12.9
2023-08-11T04:11:34.680Z,13.7
2023-08-11T04:12:50.922Z,9.8
2023-08-11T04:14:06.125Z,11
2023-08-11T04:15:22.375Z,10.2
2023-08-11T04:16:38.658Z,12.1
2023-08-11T04:17:54.887Z,8.8
2023-08-11T04:19:11.086Z,16.2
2023-08-11T04:20:27.326Z,7.3
2023-08-11T04:21:43.556Z,11.8
2023-08-11T04:22:59.802Z,11
2023-08-11T04:24:16.039Z,9.5
2023-08-11T04:25:32.325Z,8.8
2023-08-11T04:26:48.520Z,12.4
2023-08-11T04:28:04.761Z,10.2
2023-08-11T04:29:21.046Z,9.2
2023-08-11T04:30:36.252Z,11.1
2023-08-11T04:31:52.491Z,9.9
2023-08-11T04:33:08.745Z,10.1
2023-08-11T04:34:24.966Z,13.4
2023-08-11T04:35:41.217Z,9.7
2023-08-11T04:36:57.446Z,8.8
2023-08-11T04:38:13.685Z,10.5
2023-08-11T04:39:29.986Z,8.4
2023-08-11T04:40:46.218Z,9.9
2023-08-11T04:42:02.403Z,10.3
2023-08-11T04:43:18.649Z,11.3
2023-08-11T04:44:34.897Z,11.7
2023-08-11T04:45:51.123Z,9.3
2023-08-11T04:47:06.382Z,8.4
2023-08-11T04:48:22.616Z,9.1
2023-08-11T04:49:38.911Z,9.9
2023-08-11T04:50:55.095Z,10.1
2023-08-11T04:52:11.384Z,10.8
2023-08-11T04:53:27.574Z,11.4
2023-08-11T04:54:43.821Z,10.6
2023-08-11T04:56:00.063Z,10.5
2023-08-11T04:57:16.304Z,9.7
2023-08-11T04:58:32.535Z,9.5
2023-08-11T04:59:48.828Z,10.6
2023-08-11T05:01:05.010Z,11.3
2023-08-11T05:02:21.265Z,12.3
2023-08-11T05:03:36.508Z,10.9
2023-08-11T05:04:52.753Z,9.4
2023-08-11T05:06:08.989Z,11.4
2023-08-11T05:07:25.291Z,14.2
2023-08-11T05:08:41.463Z,8.7
2023-08-11T05:09:57.718Z,10.7
2023-08-11T05:11:13.954Z,11.2
2023-08-11T05:12:30.239Z,10.2
2023-08-11T05:13:46.423Z,10.1
2023-08-11T05:15:02.674Z,10.6
2023-08-11T05:16:18.902Z,9.1
2023-08-11T05:17:35.150Z,9.4
2023-08-11T05:18:51.436Z,12.6
2023-08-11T05:20:06.646Z,9.7
2023-08-11T05:21:22.922Z,10
2023-08-11T05:22:39.113Z,14.1
2023-08-11T05:23:55.410Z,9.9
2023-08-11T05:25:11.596Z,13.3
2023-08-11T05:26:27.878Z,13.9
2023-08-11T05:27:44.067Z,15.1
2023-08-11T05:29:00.361Z,9.5
2023-08-11T05:30:16.596Z,12.8
2023-08-11T05:31:32.793Z,11.3
2023-08-11T05:32:49.032Z,11.3
2023-08-11T05:34:05.275Z,13.1
2023-08-11T05:35:21.553Z,9.4
2023-08-11T05:36:36.766Z,12.1
2023-08-11T05:37:53.003Z,12.7
2023-08-11T05:39:09.285Z,12.3
2023-08-11T05:40:25.475Z,7.6
2023-08-11T05:41:41.779Z,10.7
2023-08-11T05:42:58.004Z,13.8
2023-08-11T05:44:14.194Z,14.1
2023-08-11T05:45:30.440Z,11.4
2023-08-11T05:46:46.668Z,9.1
2023-08-11T05:48:02.924Z,12.3
2023-08-11T05:49:19.155Z,13.2
2023-08-11T05:50:35.394Z,10.5
2023-08-11T05:51:51.677Z,10.3
2023-08-11T05:53:06.884Z,8.4
2023-08-11T05:54:23.122Z,11.5
2023-08-11T05:55:39.373Z,11.2
2023-08-11T05:56:55.653Z,9.5
2023-08-11T05:58:11.848Z,10
2023-08-11T05:59:28.081Z,11.2
2023-08-11T06:00:44.368Z,13.5
2023-08-11T06:02:00.608Z,10.1
2023-08-11T06:03:16.846Z,10.6
2023-08-11T06:04:33.090Z,11.9
2023-08-11T06:05:49.277Z,12.9
2023-08-11T06:07:05.512Z,10.7
2023-08-11T06:08:21.757Z,12.7
2023-08-11T06:09:37.013Z,13.9
2023-08-11T06:10:53.243Z,12.2
2023-08-11T06:12:09.483Z,13.1
2023-08-11T06:13:25.726Z,10.5
2023-08-11T06:14:41.956Z,9.1
2023-08-11T06:15:58.204Z,11.2
2023-08-11T06:17:14.431Z,10.3
2023-08-11T06:18:30.669Z,13.3
2023-08-11T06:19:46.922Z,13.8
2023-08-11T06:21:03.163Z,13.5
2023-08-11T06:22:19.386Z,10.4
2023-08-11T06:23:35.629Z,13.3
2023-08-11T06:24:51.867Z,12.2
2023-08-11T06:26:07.127Z,12.4
2023-08-11T06:27:23.360Z,14.4
2023-08-11T06:28:39.602Z,7.9
2023-08-11T06:29:55.846Z,11.3
2023-08-11T06:31:12.083Z,12
2023-08-11T06:32:28.324Z,14.5
2023-08-11T06:33:44.558Z,13.7
2023-08-11T06:35:00.806Z,12.4
2023-08-11T06:36:17.044Z,10.8
2023-08-11T06:37:33.280Z,11.5
2023-08-11T06:38:49.505Z,10.4
2023-08-11T06:40:05.762Z,11.1
2023-08-11T06:41:21.984Z,12.9
2023-08-11T06:42:38.361Z,10.8
2023-08-11T06:43:54.582Z,13.2
2023-08-11T06:45:10.829Z,11.7
2023-08-11T06:46:27.072Z,13.8
2023-08-11T06:47:43.315Z,9
2023-08-11T06:48:59.547Z,11.7
2023-08-11T06:50:15.776Z,11.5
2023-08-11T06:51:32.015Z,10.2
2023-08-11T06:52:48.270Z,11.7
2023-08-11T06:54:04.505Z,10.5
2023-08-11T06:55:20.738Z,11.4
2023-08-11T06:56:36.983Z,8.9
2023-08-11T06:57:53.218Z,10.6
2023-08-11T06:59:08.474Z,9.8
2023-08-11T07:00:24.713Z,11.8
2023-08-11T07:01:40.951Z,11
2023-08-11T07:02:57.194Z,9.5
2023-08-11T07:04:13.425Z,10.7
2023-08-11T07:05:29.663Z,8
2023-08-11T07:06:45.902Z,11.8
2023-08-11T07:08:02.144Z,11
2023-08-11T07:09:18.372Z,10.4
2023-08-11T07:10:34.622Z,9.6
2023-08-11T07:11:50.851Z,10.6
2023-08-11T07:13:07.093Z,10
2023-08-11T07:14:23.329Z,8.9
2023-08-11T07:15:38.593Z,13.3
2023-08-11T07:16:54.825Z,10.5
2023-08-11T07:18:11.058Z,12.6
2023-08-11T07:19:27.298Z,10.4
2023-08-11T07:20:43.550Z,10.6
2023-08-11T07:21:59.779Z,10.5
2023-08-11T07:23:16.030Z,14.8
2023-08-11T07:24:32.269Z,10.2
2023-08-11T07:25:48.504Z,12.7
2023-08-11T07:27:04.736Z,8.3
2023-08-11T07:28:20.971Z,9.4
2023-08-11T07:29:37.209Z,13
2023-08-11T07:30:53.443Z,9.1
2023-08-11T07:32:08.706Z,11
2023-08-11T07:33:24.958Z,9
2023-08-11T07:34:41.182Z,10.9
2023-08-11T07:35:57.421Z,8.7
2023-08-11T07:37:13.660Z,7.4
2023-08-11T07:38:29.899Z,9.7
2023-08-11T07:39:46.137Z,9.9
2023-08-11T07:41:02.375Z,8.4
2023-08-11T07:42:18.619Z,15.1
2023-08-11T07:43:34.843Z,9.6
2023-08-11T07:44:51.091Z,12
2023-08-11T07:46:07.329Z,7.8
2023-08-11T07:47:23.572Z,12.8
2023-08-11T07:48:38.826Z,8.5
2023-08-11T07:49:55.058Z,10.4
2023-08-11T07:51:11.310Z,7.4
2023-08-11T07:52:27.541Z,8.2
2023-08-11T07:53:43.778Z,6.8
2023-08-11T07:55:00.025Z,8.8
2023-08-11T07:56:16.253Z,9.7
2023-08-11T07:57:32.489Z,10
2023-08-11T07:58:48.739Z,8
2023-08-11T08:00:04.966Z,10.8
2023-08-11T08:01:21.213Z,10
2023-08-11T08:02:37.459Z,9.1
2023-08-11T08:03:53.682Z,7.1
2023-08-11T08:05:08.951Z,9.5
2023-08-11T08:06:25.172Z,8.1
2023-08-11T08:07:41.436Z,6.9
2023-08-11T08:08:57.652Z,8.3
2023-08-11T08:10:13.908Z,9.3
2023-08-11T08:11:30.141Z,5.5
2023-08-11T08:12:45.406Z,10.3
2023-08-11T08:14:01.646Z,10.1
2023-08-11T08:15:17.881Z,9.7
2023-08-11T08:16:34.117Z,7.4
2023-08-11T08:17:50.343Z,8.5
2023-08-11T08:19:06.609Z,8.7
2023-08-11T08:20:22.821Z,8.9
2023-08-11T08:21:39.062Z,7.3
2023-08-11T08:22:55.298Z,6.7
2023-08-11T08:24:11.556Z,6.8
2023-08-11T08:25:27.781Z,8.8
2023-08-11T08:26:44.020Z,9.2
2023-08-11T08:28:00.274Z,8.5
2023-08-11T08:29:15.513Z,7.6
2023-08-11T08:30:31.770Z,10.5
2023-08-11T08:31:47.998Z,7.9
2023-08-11T08:33:04.235Z,10.4
2023-08-11T08:34:20.476Z,9.3
2023-08-11T08:35:36.719Z,6
2023-08-11T08:36:52.955Z,7.4
2023-08-11T08:38:09.194Z,6.8
2023-08-11T08:39:25.430Z,9.8
2023-08-11T08:40:41.675Z,7.3
2023-08-11T08:41:57.902Z,7.3
2023-08-11T08:43:14.155Z,7.5
2023-08-11T08:44:30.383Z,7.6
2023-08-11T08:45:45.643Z,7.1
2023-08-11T08:47:01.879Z,8.2
2023-08-11T08:48:18.118Z,8.2
2023-08-11T08:49:34.354Z,5.8
2023-08-11T08:50:50.000Z,9.3
2023-08-11T08:52:06.845Z,4.8
2023-08-11T08:53:23.088Z,6.4
2023-08-11T08:54:39.336Z,6
2023-08-11T08:55:55.563Z,6.5
2023-08-11T08:57:11.806Z,3.9
2023-08-11T08:58:28.032Z,7.7
2023-08-11T08:59:44.272Z,7.4
2023-08-11T09:01:00.522Z,4.7
2023-08-11T09:02:15.787Z,7.6
2023-08-11T09:03:32.010Z,6.1
2023-08-11T09:04:48.246Z,6
2023-08-11T09:06:04.481Z,4.8
2023-08-11T09:07:20.733Z,3.3
2023-08-11T09:08:36.975Z,6.1
2023-08-11T09:09:53.219Z,3.1
2023-08-11T09:11:09.437Z,4.3
2023-08-11T09:12:25.691Z,3.2
2023-08-11T09:13:41.929Z,2.6
2023-08-11T09:14:58.172Z,2.5
2023-08-11T09:16:14.404Z,2.7
2023-08-11T09:17:30.631Z,3.8
2023-08-11T09:18:45.898Z,2.2
2023-08-11T09:20:02.151Z,2.6
2023-08-11T09:21:18.378Z,5.1
2023-08-11T09:22:34.623Z,3.3
2023-08-11T09:23:50.872Z,6
2023-08-11T09:25:07.086Z,7.2
2023-08-11T09:26:23.327Z,4.4
2023-08-11T09:27:39.569Z,5.1
2023-08-11T09:28:55.000Z,5.7
2023-08-11T09:30:12.047Z,4.4
2023-08-11T09:31:28.291Z,3.8
2023-08-11T09:32:44.541Z,3.8
2023-08-11T09:34:00.756Z,2.9
2023-08-11T09:35:16.024Z,5.9
2023-08-11T09:36:32.254Z,2.7
2023-08-11T09:37:48.501Z,3.9
2023-08-11T09:39:04.731Z,5.3
2023-08-11T09:40:20.986Z,5.1
2023-08-11T09:41:37.216Z,8.7
2023-08-11T09:42:53.466Z,5.1
2023-08-11T09:44:09.687Z,8.8
2023-08-11T09:45:25.930Z,4.3
2023-08-11T09:46:42.189Z,4.4
2023-08-11T09:47:58.424Z,5.4
2023-08-11T09:49:14.666Z,3.7
2023-08-11T09:50:30.901Z,10.9
2023-08-11T09:51:46.144Z,5
2023-08-11T09:53:02.400Z,4
2023-08-11T09:54:18.637Z,4.5
2023-08-11T09:55:34.863Z,5.1
2023-08-11T09:56:51.102Z,6.3
2023-08-11T09:58:07.349Z,4.1
2023-08-11T09:59:23.602Z,4.4
2023-08-11T10:00:39.839Z,5.5
2023-08-11T10:01:56.062Z,5.7
2023-08-11T10:03:12.318Z,3.4
2023-08-11T10:04:28.560Z,6.1
2023-08-11T10:05:44.780Z,4.8
2023-08-11T10:07:01.026Z,4.5
2023-08-11T10:08:16.308Z,5
2023-08-11T10:09:32.518Z,2.7
2023-08-11T10:10:48.760Z,5
2023-08-11T10:12:04.000Z,4.3
2023-08-11T10:13:21.252Z,3.1
2023-08-11T10:14:37.504Z,3.4
2023-08-11T10:15:53.725Z,5.2
2023-08-11T10:17:09.987Z,4.8
2023-08-11T10:18:26.212Z,4.3
2023-08-11T10:19:42.443Z,3.6
2023-08-11T10:20:58.699Z,5.3
2023-08-11T10:22:14.923Z,5
2023-08-11T10:23:31.161Z,4.4
2023-08-11T10:24:46.430Z,5.9
2023-08-11T10:26:02.667Z,3
2023-08-11T10:27:18.908Z,3.6
2023-08-11T10:28:35.152Z,4.5
2023-08-11T10:29:51.377Z,6.1
2023-08-11T10:31:07.622Z,3.9
2023-08-11T10:32:23.860Z,5
2023-08-11T10:33:40.114Z,6
2023-08-11T10:34:56.359Z,7.3
2023-08-11T10:36:12.590Z,5.6
2023-08-11T10:37:28.828Z,4.3
2023-08-11T10:38:45.066Z,4.2
2023-08-11T10:40:01.316Z,3.8
2023-08-11T10:41:17.678Z,3.6
2023-08-11T10:42:33.907Z,4.2
2023-08-11T10:43:50.143Z,2.9
2023-08-11T10:45:06.386Z,5.8
2023-08-11T10:46:22.617Z,4.1
2023-08-11T10:47:38.874Z,6.1
2023-08-11T10:48:55.101Z,4.5
2023-08-11T10:50:11.351Z,4.3
2023-08-11T10:51:27.578Z,4.9
2023-08-11T10:52:43.816Z,3.6
2023-08-11T10:54:00.070Z,5.1
2023-08-11T10:55:16.311Z,4.3
2023-08-11T10:56:32.534Z,5.3
2023-08-11T10:57:47.795Z,3.8
2023-08-11T10:59:04.038Z,3.8
2023-08-11T11:00:20.282Z,6.8
2023-08-11T11:01:36.524Z,6.1
2023-08-11T11:02:52.763Z,3
2023-08-11T11:04:08.988Z,4.4
2023-08-11T11:05:25.238Z,3.5
2023-08-11T11:06:41.478Z,4.1
2023-08-11T11:07:57.711Z,5.2
2023-08-11T11:09:13.951Z,4.2
2023-08-11T11:10:30.196Z,3.6
2023-08-11T11:11:46.450Z,4.8
2023-08-11T11:13:02.676Z,3.7
2023-08-11T11:14:19.041Z,6.7
2023-08-11T11:15:35.258Z,5.3
2023-08-11T11:16:51.508Z,4.6
2023-08-11T11:18:07.741Z,5.4
2023-08-11T11:19:23.988Z,3
2023-08-11T11:20:40.234Z,5.2
2023-08-11T11:21:56.457Z,4.3
2023-08-11T11:23:12.704Z,4.3
2023-08-11T11:24:28.933Z,5.2
2023-08-11T11:25:45.180Z,3.6
2023-08-11T11:27:01.423Z,6.3
2023-08-11T11:28:17.669Z,7.1
2023-08-11T11:29:33.000Z,3.6
2023-08-11T11:30:49.148Z,3.9
2023-08-11T11:32:05.395Z,5.9
2023-08-11T11:33:21.633Z,4.2
2023-08-11T11:34:37.862Z,4.1
2023-08-11T11:35:54.097Z,3.6
2023-08-11T11:37:10.362Z,4.5
2023-08-11T11:38:26.603Z,6.5
2023-08-11T11:39:42.845Z,5.3
2023-08-11T11:40:59.073Z,4.4
2023-08-11T11:42:15.000Z,4.6
2023-08-11T11:43:31.541Z,3
2023-08-11T11:44:47.781Z,2.6
2023-08-11T11:46:04.026Z,5.1
2023-08-11T11:47:20.380Z,4.4
2023-08-11T11:48:36.603Z,4.7
2023-08-11T11:49:52.861Z,3.8
2023-08-11T11:51:09.088Z,4.4
2023-08-11T11:52:25.341Z,3.9
2023-08-11T11:53:41.566Z,3.2
2023-08-11T11:54:57.822Z,6.2
2023-08-11T11:56:14.046Z,3.3
2023-08-11T11:57:30.289Z,3.1
2023-08-11T11:58:46.509Z,5.1
2023-08-11T12:00:02.753Z,4.3
2023-08-11T12:01:18.994Z,3.7
2023-08-11T12:02:35.228Z,6.5
2023-08-11T12:03:50.480Z,4.5
2023-08-11T12:05:06.732Z,4.6
2023-08-11T12:06:22.958Z,3.3
2023-08-11T12:07:39.219Z,5.1
2023-08-11T12:08:55.440Z,5.3
2023-08-11T12:10:11.674Z,7.4
2023-08-11T12:11:27.930Z,3.1
2023-08-11T12:12:44.151Z,5
2023-08-11T12:14:00.399Z,3.4
2023-08-11T12:15:16.640Z,3.1
2023-08-11T12:16:32.874Z,4.8
2023-08-11T12:17:49.103Z,5
2023-08-11T12:19:05.359Z,4.5
2023-08-11T12:20:20.601Z,5.1
2023-08-11T12:21:36.852Z,3.6
2023-08-11T12:22:53.079Z,4.5
2023-08-11T12:24:09.327Z,3.8
2023-08-11T12:25:25.551Z,4.8
2023-08-11T12:26:41.789Z,4.6
2023-08-11T12:27:58.166Z,6.1
2023-08-11T12:29:14.404Z,4.2
2023-08-11T12:30:30.640Z,4.7
2023-08-11T12:31:46.870Z,4
2023-08-11T12:33:03.114Z,3.8
2023-08-11T12:34:19.348Z,4.4
2023-08-11T12:35:35.000Z,5.2
2023-08-11T12:36:51.843Z,3.6
2023-08-11T12:38:08.065Z,3.4
2023-08-11T12:39:24.320Z,4.2
2023-08-11T12:40:40.566Z,6.1
2023-08-11T12:41:56.788Z,5.7
2023-08-11T12:43:13.028Z,6.3
2023-08-11T12:44:28.315Z,4.3
2023-08-11T12:45:44.530Z,4.6
2023-08-11T12:47:00.759Z,3.9
2023-08-11T12:48:17.006Z,6.1
2023-08-11T12:49:33.243Z,3.2
2023-08-11T12:50:49.493Z,4.6
2023-08-11T12:52:05.728Z,5.2
2023-08-11T12:53:21.972Z,4.6
2023-08-11T12:54:38.202Z,2.9
2023-08-11T12:55:54.436Z,3.8
2023-08-11T12:57:10.682Z,3.7
2023-08-11T12:58:26.000Z,3.8
2023-08-11T12:59:43.166Z,5.3
2023-08-11T13:00:58.414Z,5.8
2023-08-11T13:02:14.651Z,3.6
2023-08-11T13:03:30.887Z,5.7
2023-08-11T13:04:47.125Z,4.4
2023-08-11T13:06:03.000Z,3.6
2023-08-11T13:07:19.600Z,3.4
2023-08-11T13:08:35.841Z,4.3
2023-08-11T13:09:52.091Z,3.6
2023-08-11T13:11:08.336Z,5.4
2023-08-11T13:12:24.563Z,7.9
2023-08-11T13:13:40.808Z,4.9
2023-08-11T13:14:57.047Z,5.6
2023-08-11T13:16:13.000Z,4
2023-08-11T13:17:28.549Z,5.1
2023-08-11T13:18:44.784Z,4.2
2023-08-11T13:20:01.013Z,4.4
2023-08-11T13:21:17.253Z,4
2023-08-11T13:22:33.492Z,4.7
2023-08-11T13:23:49.751Z,4.8
2023-08-11T13:25:05.973Z,6.5
2023-08-11T13:26:22.225Z,3.7
2023-08-11T13:27:38.455Z,4.6
2023-08-11T13:28:54.698Z,7.2
2023-08-11T13:30:10.926Z,4.6
2023-08-11T13:31:27.194Z,7
2023-08-11T13:32:43.411Z,5.8
2023-08-11T13:33:58.682Z,5.9
2023-08-11T13:35:14.931Z,4.9
2023-08-11T13:36:31.144Z,4.5
2023-08-11T13:37:47.394Z,5.5
2023-08-11T13:39:03.000Z,5.1
2023-08-11T13:40:19.865Z,6.5
2023-08-11T13:41:36.122Z,3.7
2023-08-11T13:42:52.362Z,3.9
2023-08-11T13:44:08.000Z,3.6
2023-08-11T13:45:24.824Z,4.1
2023-08-11T13:46:41.094Z,5.7
2023-08-11T13:47:57.300Z,5.4
2023-08-11T13:49:13.552Z,3.3
2023-08-11T13:50:28.800Z,5.4
2023-08-11T13:51:45.032Z,4.7
2023-08-11T13:53:01.278Z,4.2
2023-08-11T13:54:17.526Z,5.4
2023-08-11T13:55:33.760Z,4.7
2023-08-11T13:56:50.004Z,7.4
2023-08-11T13:58:06.234Z,4
2023-08-11T13:59:22.506Z,6.2
2023-08-11T14:00:38.718Z,4.9
2023-08-11T14:01:54.000Z,5
2023-08-11T14:03:11.203Z,5.2
2023-08-11T14:04:27.000Z,4.7
2023-08-11T14:05:43.695Z,9.5
2023-08-11T14:06:58.961Z,5.8
2023-08-11T14:08:15.199Z,8.2
2023-08-11T14:09:31.411Z,7
2023-08-11T14:10:47.653Z,4.8
2023-08-11T14:12:03.918Z,4
2023-08-11T14:13:20.127Z,5.8
2023-08-11T14:14:36.405Z,5.1
2023-08-11T14:15:52.618Z,5.9
2023-08-11T14:17:08.880Z,10.2
2023-08-11T14:18:25.104Z,7.5
2023-08-11T14:19:41.352Z,6.3
2023-08-11T14:20:57.580Z,4.1
2023-08-11T14:22:13.812Z,4.5
2023-08-11T14:23:29.064Z,4.2
2023-08-11T14:24:45.319Z,5.9
2023-08-11T14:26:01.573Z,4
2023-08-11T14:27:17.782Z,6
2023-08-11T14:28:34.049Z,5.7
2023-08-11T14:29:50.262Z,5.9
2023-08-11T14:31:06.538Z,5
2023-08-11T14:32:22.771Z,5.5
2023-08-11T14:33:38.993Z,4.3
2023-08-11T14:34:55.234Z,5
2023-08-11T14:36:11.487Z,5
2023-08-11T14:37:27.000Z,5.7
2023-08-11T14:38:43.942Z,4.8
2023-08-11T14:39:59.213Z,6.2
2023-08-11T14:41:15.454Z,3.4
2023-08-11T14:42:31.707Z,6.6
2023-08-11T14:43:47.939Z,4.4
2023-08-11T14:45:04.000Z,5.6
2023-08-11T14:46:20.408Z,4.9
2023-08-11T14:47:36.670Z,6.5
2023-08-11T14:48:52.898Z,4.5
2023-08-11T14:50:09.153Z,5.7
2023-08-11T14:51:25.386Z,5.5
2023-08-11T14:52:41.616Z,4.3
2023-08-11T14:53:57.851Z,6.1
2023-08-11T14:55:14.115Z,5.8
2023-08-11T14:56:29.337Z,7.4
2023-08-11T14:57:45.000Z,6.1
2023-08-11T14:59:01.830Z,5
2023-08-11T15:00:18.091Z,6.4
2023-08-11T15:01:34.311Z,4.9
2023-08-11T15:02:50.000Z,5.1
2023-08-11T15:04:06.781Z,5.8
2023-08-11T15:05:23.046Z,5.1
2023-08-11T15:06:39.263Z,4.2
2023-08-11T15:07:55.000Z,9
2023-08-11T15:09:11.750Z,4.2
2023-08-11T15:10:27.988Z,3.9
2023-08-11T15:11:44.220Z,5.1
2023-08-11T15:13:00.590Z,6.8
2023-08-11T15:14:16.831Z,4.5
2023-08-11T15:15:33.070Z,5.6
2023-08-11T15:16:49.305Z,5.1
2023-08-11T15:18:05.573Z,6.8
2023-08-11T15:19:21.793Z,4.3
2023-08-11T15:20:38.056Z,4.3
2023-08-11T15:21:54.282Z,5
2023-08-11T15:23:10.536Z,8.2
2023-08-11T15:24:26.770Z,7.4
2023-08-11T15:25:42.996Z,6.1
2023-08-11T15:26:59.239Z,6.1
2023-08-11T15:28:15.473Z,5.2
2023-08-11T15:29:30.732Z,6.3
2023-08-11T15:30:46.993Z,6.5
2023-08-11T15:32:03.211Z,4.9
2023-08-11T15:33:19.458Z,4.6
2023-08-11T15:34:35.696Z,3.8
2023-08-11T15:35:51.955Z,3.8
2023-08-11T15:37:08.179Z,5.8
2023-08-11T15:38:24.433Z,4.4
2023-08-11T15:39:40.657Z,5.3
2023-08-11T15:40:56.912Z,3.9
2023-08-11T15:42:13.133Z,7
2023-08-11T15:43:29.396Z,6.5
2023-08-11T15:44:45.615Z,5.3
2023-08-11T15:46:00.865Z,6.9
2023-08-11T15:47:17.113Z,4.5
2023-08-11T15:48:33.357Z,5.9
2023-08-11T15:49:49.589Z,4.8
2023-08-11T15:51:05.820Z,7.7
2023-08-11T15:52:22.059Z,4.3
2023-08-11T15:53:38.309Z,4.9
2023-08-11T15:54:54.543Z,4.5
2023-08-11T15:56:10.787Z,6.9
2023-08-11T15:57:27.050Z,5.3
2023-08-11T15:58:43.266Z,6.1
2023-08-11T15:59:59.517Z,4
2023-08-11T16:01:15.740Z,6
2023-08-11T16:02:31.002Z,4.7
2023-08-11T16:03:47.264Z,4.2
2023-08-11T16:05:03.481Z,5.5
2023-08-11T16:06:19.723Z,5.6
2023-08-11T16:07:35.969Z,5.8
2023-08-11T16:08:52.206Z,5.4
2023-08-11T16:10:08.442Z,6
2023-08-11T16:11:24.677Z,3.5
2023-08-11T16:12:40.919Z,4.8
2023-08-11T16:13:57.155Z,5
2023-08-11T16:15:13.411Z,4.9
2023-08-11T16:16:29.667Z,3.7
2023-08-11T16:17:45.894Z,5.7
2023-08-11T16:19:01.000Z,4.8
2023-08-11T16:20:17.385Z,6.9
2023-08-11T16:21:33.645Z,5.6
2023-08-11T16:22:49.866Z,5
2023-08-11T16:24:06.124Z,4.8
2023-08-11T16:25:22.337Z,6.5
2023-08-11T16:26:38.604Z,6.7
2023-08-11T16:27:54.822Z,4.1
2023-08-11T16:29:11.088Z,5.8
2023-08-11T16:30:27.292Z,6.3
2023-08-11T16:31:43.530Z,6.4
2023-08-11T16:32:59.772Z,6.3
2023-08-11T16:34:16.023Z,6.4
2023-08-11T16:35:31.274Z,7.3
2023-08-11T16:36:47.537Z,6.4
2023-08-11T16:38:03.747Z,5.1
2023-08-11T16:39:20.019Z,8
2023-08-11T16:40:36.232Z,5.3
2023-08-11T16:41:52.515Z,3.7
2023-08-11T16:43:07.744Z,4.7
2023-08-11T16:44:23.980Z,5.1
2023-08-11T16:45:40.250Z,7.1
2023-08-11T16:46:56.489Z,6.4
2023-08-11T16:48:12.690Z,4.8
2023-08-11T16:49:28.941Z,7.5
2023-08-11T16:50:45.183Z,7.1
2023-08-11T16:52:01.438Z,6.6
2023-08-11T16:53:17.648Z,4.2
2023-08-11T16:54:33.918Z,5.3
2023-08-11T16:55:50.129Z,8.3
2023-08-11T16:57:06.366Z,5.1
2023-08-11T16:58:22.621Z,7.2
2023-08-11T16:59:37.862Z,4.2
2023-08-11T17:00:54.142Z,6.5
2023-08-11T17:02:10.340Z,5.9
2023-08-11T17:03:26.597Z,9.2
2023-08-11T17:04:42.826Z,6
2023-08-11T17:05:59.102Z,6.2
2023-08-11T17:07:15.314Z,6.6
2023-08-11T17:08:31.550Z,6
2023-08-11T17:09:47.796Z,7.7
2023-08-11T17:11:04.026Z,6.1
2023-08-11T17:12:20.277Z,7.1
2023-08-11T17:13:36.514Z,4.4
2023-08-11T17:14:52.744Z,7
2023-08-11T17:16:07.996Z,4.5
2023-08-11T17:17:24.238Z,5.6
2023-08-11T17:18:40.492Z,6.1
2023-08-11T17:19:56.716Z,6.5
2023-08-11T17:21:12.966Z,5.3
2023-08-11T17:22:29.205Z,6
2023-08-11T17:23:45.445Z,4.5
2023-08-11T17:25:01.684Z,6.3
2023-08-11T17:26:17.916Z,5.3